CÀNOVES I SAMALÚS (Vallès Oriental)





Hora UTC 10:00
Temperatura 26.3 ºC
Humitat 56.2 %
Pressió 1013.5 hPa
Pluja 0.0 mm
Velocitat vent 9.1 km/h
Direcció vent E
Radiació solar 816.0 W/m²

Dades diàries 2024-06-18



Hora UTC (hivern +1h; estiu +2h)
Temperatura (ºC) Humitat (%) Pressió (hPa) Velocitat vent (km/h) Precipitació (mm) Radiació solar (W/m²)
Hora UTC Aire Humitat Pressió Vel. Dir. Vel. Max Dir. Intent. màx 5 min. Rad. Sol.
00:05 17.3 82.3 1014.7 4.9 NNW 4.9 NNW 0.0 0.1
00:10 17.3 82.1 1014.6 4.5 NNW 8.1 N 0.0 0.1
00:15 17.2 82.1 1014.5 4.5 NNW 10.2 NNW 0.0 0.1
00:20 17.3 82.1 1014.5 4.0 NNW 8.1 N 0.0 0.1
00:25 17.3 81.5 1014.4 4.3 NW 8.5 NW 0.0 0.1
00:30 17.2 81.6 1014.3 2.8 NNW 7.1 NW 0.0 0.1
00:35 17.2 81.5 1014.2 1.0 NNW 3.5 N 0.0 0.1
00:40 17.1 81.6 1014.1 2.4 N 10.2 NNE 0.0 0.1
00:45 17.1 81.7 1014.0 2.6 NW 7.8 NNW 0.0 0.1
00:50 17.1 81.4 1013.9 0.7 WSW 4.6 NNW 0.0 0.1
00:55 16.9 81.9 1013.9 2.0 N 10.6 NW 0.0 0.1
01:00 16.9 82.2 1013.9 2.0 NNW 7.8 N 0.0 0.1
01:05 16.9 82.3 1013.9 3.0 N 9.5 NNE 0.0 0.1
01:10 17.1 81.6 1013.8 3.1 NNW 9.9 N 0.0 0.1
01:15 17.5 80.3 1013.8 5.7 N 15.5 N 0.0 0.1
01:20 17.9 78.6 1013.8 2.1 N 7.1 NNW 0.0 0.1
01:25 17.9 78.4 1013.8 4.7 N 9.2 NNW 0.0 0.1
01:30 17.9 78.1 1013.7 3.7 NNW 10.2 NW 0.0 0.1
01:35 17.9 79.0 1013.7 3.4 N 8.5 NNE 0.0 0.1
01:40 18.1 78.3 1013.6 6.0 N 12.4 N 0.0 0.1
01:45 18.1 77.9 1013.5 3.1 NNW 9.9 NNW 0.0 0.1
01:50 18.0 78.8 1013.4 3.0 NNW 9.5 N 0.0 0.1
01:55 18.0 78.8 1013.3 1.3 N 6.0 NE 0.0 0.1
02:00 18.1 78.5 1013.2 1.8 NW 5.6 NNW 0.0 0.1
02:05 18.1 78.8 1013.1 5.6 N 15.2 NNW 0.0 0.1
02:10 18.4 77.6 1013.0 3.7 NNE 10.6 NE 0.0 0.1
02:15 18.2 78.4 1013.0 3.1 N 9.5 N 0.0 0.1
02:20 18.2 78.2 1012.9 2.8 NNW 8.5 NW 0.0 0.1
02:25 18.2 78.4 1012.9 4.3 N 10.6 NNW 0.0 0.1
02:30 18.2 78.2 1012.8 3.3 N 9.5 N 0.0 0.1
02:35 18.2 78.3 1012.8 3.1 NNE 8.8 N 0.0 0.1
02:40 18.2 77.9 1012.8 2.6 N 7.4 NNE 0.0 0.1
02:45 17.9 78.0 1012.9 1.2 ESE 7.8 SSE 0.0 0.1
02:50 17.6 80.2 1012.9 4.4 SSE 8.8 SE 0.0 0.1
02:55 17.2 81.3 1013.0 2.4 ENE 4.2 E 0.0 0.1
03:00 17.0 81.9 1013.0 2.3 NNE 6.7 ENE 0.0 0.1
03:05 17.0 82.5 1013.0 2.5 NNW 5.6 NW 0.0 0.1
03:10 16.9 82.6 1012.9 3.3 NW 5.6 NW 0.0 0.1
03:15 16.8 82.7 1012.9 2.4 NNW 5.3 NNW 0.0 0.1
03:20 16.8 83.1 1013.0 3.3 NNW 7.4 NNW 0.0 0.1
03:25 16.8 82.8 1013.0 4.7 N 8.1 NW 0.0 0.1
03:30 16.9 81.7 1012.9 2.8 NNE 10.2 NNE 0.0 0.1
03:35 16.7 82.0 1012.9 1.8 N 6.4 N 0.0 0.1
03:40 16.5 83.1 1012.9 3.6 NNW 6.7 N 0.0 0.1
03:45 16.5 83.6 1012.9 2.7 NNW 3.9 NW 0.0 0.1
03:50 16.4 84.1 1012.8 2.7 NNW 3.9 NW 0.0 0.2
03:55 16.3 84.5 1012.8 2.7 NNW 6.4 NNE 0.0 0.2
04:00 16.1 84.5 1012.8 3.3 NNW 8.1 N 0.0 0.5
04:05 16.2 84.1 1012.7 1.7 NNW 7.8 NW 0.0 1.2
04:10 16.2 83.9 1012.6 2.7 NNW 6.0 NNW 0.0 2.3
04:15 16.3 83.7 1012.6 3.8 NNW 8.1 N 0.0 3.6
04:20 16.3 83.2 1012.5 3.4 NNW 6.7 N 0.0 5.3
04:25 16.3 83.2 1012.6 3.7 NNW 7.1 N 0.0 7.6
04:30 16.3 83.2 1012.6 2.3 N 4.2 NW 0.0 10.1
04:35 16.3 82.9 1012.6 2.7 NNW 6.0 NNW 0.0 12.9
04:40 16.3 83.2 1012.6 4.4 NNW 7.1 NNW 0.0 16.1
04:45 16.3 82.9 1012.7 4.7 NNW 7.1 N 0.0 19.7
04:50 16.3 83.1 1012.8 2.3 N 6.4 N 0.0 28.9
04:55 16.3 83.1 1012.9 2.8 NNW 7.1 NNW 0.0 53.1
05:00 16.5 82.3 1012.9 3.8 NNW 7.4 NNW 0.0 62.9
05:05 16.8 81.3 1012.9 4.2 NNW 9.2 NW 0.0 73.3
05:10 17.2 79.9 1012.9 4.6 NNW 10.9 NW 0.0 84.2
05:15 17.4 78.9 1012.9 4.6 NNW 8.8 NNW 0.0 95.3
05:20 17.7 77.9 1013.0 3.5 N 7.8 WNW 0.0 107.5
05:25 18.0 77.0 1013.0 3.6 NNW 8.5 NNW 0.0 120.7
05:30 18.4 75.7 1013.1 3.2 NNW 10.2 WNW 0.0 134.7
05:35 18.7 73.7 1013.1 4.2 NNW 13.1 NNW 0.0 149.0
05:40 19.0 72.8 1013.1 6.7 NNW 11.6 NNW 0.0 162.4
05:45 19.4 71.3 1013.1 4.7 NNW 8.1 NNW 0.0 176.5
05:50 19.7 70.1 1013.2 4.4 N 12.4 NNW 0.0 189.9
05:55 20.2 68.9 1013.2 2.2 N 6.7 N 0.0 203.1
06:00 20.5 67.9 1013.3 3.7 N 8.1 N 0.0 216.3
06:05 20.8 69.0 1013.4 2.4 NNE 6.4 N 0.0 229.9
06:10 21.1 68.2 1013.5 1.6 NE 5.3 N 0.0 243.0
06:15 21.3 68.3 1013.5 0.9 ENE 3.2 E 0.0 256.8
06:20 21.6 66.3 1013.6 0.2 ENE 1.8 ENE 0.0 271.4
06:25 22.0 66.8 1013.7 1.7 SE 3.5 ESE 0.0 287.3
06:30 22.4 67.1 1013.6 1.5 ESE 5.3 E 0.0 301.5
06:35 22.7 63.9 1013.6 3.3 NE 7.4 NNE 0.0 315.8
06:40 23.0 62.1 1013.6 2.9 NE 8.8 NNE 0.0 330.6
06:45 23.3 61.2 1013.6 2.0 NE 7.4 N 0.0 345.0
06:50 23.5 60.6 1013.6 4.2 NE 13.1 ENE 0.0 359.8
06:55 23.4 59.3 1013.5 4.3 NNE 9.9 NE 0.0 375.7
07:00 23.6 59.3 1013.5 3.9 NE 10.2 NNE 0.0 358.2
07:05 23.8 57.8 1013.5 3.8 NE 9.5 NE 0.0 113.6
07:10 24.0 57.4 1013.5 4.2 NE 11.6 NNE 0.0 69.5
07:15 24.1 55.7 1013.4 3.4 NNE 12.7 NNE 0.0 165.4
07:20 24.2 54.1 1013.4 5.3 NNE 11.3 ENE 0.0 158.7
07:25 24.4 52.7 1013.4 4.9 NE 13.1 ENE 0.0 250.2
07:30 24.5 53.8 1013.2 6.1 NE 12.4 NNE 0.0 293.3
07:35 24.7 54.5 1013.1 3.3 N 12.4 N 0.0 455.2
07:40 24.9 54.7 1013.0 3.8 NNE 10.2 NNE 0.0 507.2
07:45 24.9 55.6 1012.9 4.9 NE 11.6 ENE 0.0 521.8
07:50 24.9 55.6 1013.0 4.6 ENE 13.1 E 0.0 535.1
07:55 24.9 56.9 1013.2 5.0 E 10.6 ENE 0.0 547.0
08:00 25.0 56.6 1013.2 6.4 ENE 14.8 ENE 0.0 559.7
08:05 24.9 60.2 1013.3 9.8 E 15.9 ENE 0.0 570.8
08:10 24.7 62.3 1013.3 8.6 E 14.8 E 0.0 583.9
08:15 24.7 63.4 1013.3 5.6 ENE 12.7 ENE 0.0 596.3
08:20 24.8 63.9 1013.2 7.1 E 16.6 E 0.0 607.9
08:25 24.8 61.9 1013.1 7.3 ENE 18.7 ENE 0.0 621.2
08:30 24.9 61.7 1013.2 5.0 ENE 15.2 NNE 0.0 633.9
08:35 25.0 61.0 1013.2 5.9 ENE 11.6 NE 0.0 646.0
08:40 25.1 61.5 1013.1 9.7 E 18.7 E 0.0 658.3
08:45 25.0 60.7 1013.1 7.5 ENE 16.9 ENE 0.0 668.9
08:50 25.3 61.3 1013.1 7.1 ENE 16.6 E 0.0 679.7
08:55 25.5 60.3 1013.2 5.2 ENE 13.8 ENE 0.0 691.6
09:00 25.8 59.3 1013.1 8.9 ENE 21.2 E 0.0 702.1
09:05 25.3 60.7 1013.1 12.7 E 24.7 ESE 0.0 711.9
09:10 25.3 60.9 1013.3 9.2 ENE 21.2 ENE 0.0 722.7
09:15 25.5 60.1 1013.4 9.2 ENE 17.6 NE 0.0 732.2
09:20 25.5 59.6 1013.4 9.2 E 22.6 E 0.0 742.1
09:25 25.4 59.2 1013.4 10.7 E 20.5 E 0.0 750.5
09:30 25.5 58.2 1013.5 7.3 ENE 15.9 NNE 0.0 703.2
09:35 25.8 57.7 1013.5 7.6 ENE 16.6 E 0.0 772.2
09:40 25.7 57.1 1013.5 8.1 ENE 17.6 ESE 0.0 782.3
09:45 26.0 57.6 1013.5 8.5 ENE 24.0 ENE 0.0 791.0
09:50 26.1 58.6 1013.5 8.1 E 15.2 SE 0.0 799.7
09:55 26.1 56.6 1013.5 8.9 ENE 18.4 ENE 0.0 808.0
10:00 26.3 56.2 1013.5 9.1 E 19.4 E 0.0 816.0
Màxima 26.5 84.5 1014.7 12.7 E 24.7 ESE 0.0 816.0
Mínima 16.1 52.7 1012.5
Total 0.0